sensor_id;sensor_type;location;lat;lon;timestamp;pressure;altitude;pressure_sealevel;temperature;humidity
75418;BME280;63997;52.112;5.420;2024-02-28T00:00:34;102071.44;;;1.86;100.00
75418;BME280;63997;52.112;5.420;2024-02-28T00:03:00;102071.19;;;1.88;100.00
75418;BME280;63997;52.112;5.420;2024-02-28T00:05:27;102070.41;;;1.87;100.00
75418;BME280;63997;52.112;5.420;2024-02-28T00:07:54;102074.06;;;1.86;100.00
75418;BME280;63997;52.112;5.420;2024-02-28T00:10:20;102074.84;;;1.87;100.00
75418;BME280;63997;52.112;5.420;2024-02-28T00:12:47;102082.03;;;1.91;100.00
75418;BME280;63997;52.112;5.420;2024-02-28T00:15:14;102080.75;;;1.94;100.00
75418;BME280;63997;52.112;5.420;2024-02-28T00:17:41;102073.56;;;1.89;100.00
75418;BME280;63997;52.112;5.420;2024-02-28T00:20:09;102068.00;;;1.85;100.00
75418;BME280;63997;52.112;5.420;2024-02-28T00:22:36;102073.25;;;1.85;100.00
75418;BME280;63997;52.112;5.420;2024-02-28T00:25:06;102070.84;;;1.84;100.00
75418;BME280;63997;52.112;5.420;2024-02-28T00:27:33;102066.06;;;1.81;100.00
75418;BME280;63997;52.112;5.420;2024-02-28T00:30:01;102071.31;;;1.81;100.00
75418;BME280;63997;52.112;5.420;2024-02-28T00:32:27;102073.16;;;1.80;100.00
75418;BME280;63997;52.112;5.420;2024-02-28T00:34:54;102066.53;;;1.78;100.00
75418;BME280;63997;52.112;5.420;2024-02-28T00:37:20;102073.47;;;1.72;100.00
75418;BME280;63997;52.112;5.420;2024-02-28T00:39:49;102078.41;;;1.69;100.00
75418;BME280;63997;52.112;5.420;2024-02-28T00:42:16;102080.44;;;1.67;100.00
75418;BME280;63997;52.112;5.420;2024-02-28T00:44:42;102066.88;;;1.58;100.00
75418;BME280;63997;52.112;5.420;2024-02-28T00:47:09;102079.28;;;1.51;100.00
75418;BME280;63997;52.112;5.420;2024-02-28T00:49:37;102079.16;;;1.46;100.00
75418;BME280;63997;52.112;5.420;2024-02-28T00:52:03;102077.13;;;1.48;100.00
75418;BME280;63997;52.112;5.420;2024-02-28T00:54:30;102073.38;;;1.44;100.00
75418;BME280;63997;52.112;5.420;2024-02-28T00:56:56;102079.28;;;1.39;100.00
75418;BME280;63997;52.112;5.420;2024-02-28T00:59:23;102069.81;;;1.38;100.00
75418;BME280;63997;52.112;5.420;2024-02-28T01:01:49;102068.66;;;1.34;100.00
75418;BME280;63997;52.112;5.420;2024-02-28T01:04:16;102075.75;;;1.33;100.00
75418;BME280;63997;52.112;5.420;2024-02-28T01:06:43;102068.91;;;1.32;100.00
75418;BME280;63997;52.112;5.420;2024-02-28T01:09:09;102072.56;;;1.31;100.00
75418;BME280;63997;52.112;5.420;2024-02-28T01:11:36;102067.88;;;1.33;100.00
75418;BME280;63997;52.112;5.420;2024-02-28T01:14:04;102067.31;;;1.31;100.00
75418;BME280;63997;52.112;5.420;2024-02-28T01:16:30;102059.69;;;1.30;100.00
75418;BME280;63997;52.112;5.420;2024-02-28T01:18:57;102064.13;;;1.29;100.00
75418;BME280;63997;52.112;5.420;2024-02-28T01:21:23;102061.72;;;1.28;100.00
75418;BME280;63997;52.112;5.420;2024-02-28T01:23:51;102064.34;;;1.28;100.00
75418;BME280;63997;52.112;5.420;2024-02-28T01:26:17;102065.38;;;1.27;100.00
75418;BME280;63997;52.112;5.420;2024-02-28T01:28:46;102057.75;;;1.25;100.00
75418;BME280;63997;52.112;5.420;2024-02-28T01:31:13;102060.00;;;1.22;100.00
75418;BME280;63997;52.112;5.420;2024-02-28T01:33:39;102064.44;;;1.21;100.00
75418;BME280;63997;52.112;5.420;2024-02-28T01:36:07;102060.25;;;1.20;100.00
75418;BME280;63997;52.112;5.420;2024-02-28T01:38:34;102065.91;;;1.17;100.00
75418;BME280;63997;52.112;5.420;2024-02-28T01:41:00;102060.34;;;1.14;100.00
75418;BME280;63997;52.112;5.420;2024-02-28T01:43:27;102064.06;;;1.06;100.00
75418;BME280;63997;52.112;5.420;2024-02-28T01:45:53;102052.91;;;0.99;100.00
75418;BME280;63997;52.112;5.420;2024-02-28T01:48:20;102056.78;;;0.96;100.00
75418;BME280;63997;52.112;5.420;2024-02-28T01:50:47;102058.59;;;0.96;100.00
75418;BME280;63997;52.112;5.420;2024-02-28T01:53:14;102058.03;;;0.94;100.00
75418;BME280;63997;52.112;5.420;2024-02-28T01:55:42;102065.06;;;0.93;100.00
75418;BME280;63997;52.112;5.420;2024-02-28T01:58:09;102051.75;;;0.95;100.00
75418;BME280;63997;52.112;5.420;2024-02-28T02:00:36;102060.19;;;0.97;100.00
75418;BME280;63997;52.112;5.420;2024-02-28T02:03:04;102060.19;;;0.97;100.00
75418;BME280;63997;52.112;5.420;2024-02-28T02:05:30;102060.75;;;0.99;100.00
75418;BME280;63997;52.112;5.420;2024-02-28T02:07:57;102064.97;;;1.00;100.00
75418;BME280;63997;52.112;5.420;2024-02-28T02:10:28;102065.56;;;1.02;100.00
75418;BME280;63997;52.112;5.420;2024-02-28T02:12:54;102067.38;;;1.01;100.00
75418;BME280;63997;52.112;5.420;2024-02-28T02:15:21;102062.94;;;1.02;100.00
75418;BME280;63997;52.112;5.420;2024-02-28T02:17:48;102069.19;;;1.01;100.00
75418;BME280;63997;52.112;5.420;2024-02-28T02:20:14;102067.38;;;1.01;100.00
75418;BME280;63997;52.112;5.420;2024-02-28T02:22:41;102072.63;;;1.01;100.00
75418;BME280;63997;52.112;5.420;2024-02-28T02:25:08;102066.56;;;1.01;100.00
75418;BME280;63997;52.112;5.420;2024-02-28T02:27:35;102066.56;;;1.01;100.00
75418;BME280;63997;52.112;5.420;2024-02-28T02:30:02;102063.75;;;1.02;100.00
75418;BME280;63997;52.112;5.420;2024-02-28T02:32:28;102066.13;;;1.04;100.00
75418;BME280;63997;52.112;5.420;2024-02-28T02:34:55;102057.25;;;1.05;100.00
75418;BME280;63997;52.112;5.420;2024-02-28T02:37:22;102065.69;;;1.07;100.00
75418;BME280;63997;52.112;5.420;2024-02-28T02:39:48;102067.06;;;1.10;100.00
75418;BME280;63997;52.112;5.420;2024-02-28T02:42:15;102066.81;;;1.11;100.00
75418;BME280;63997;52.112;5.420;2024-02-28T02:44:42;102067.41;;;1.13;100.00
75418;BME280;63997;52.112;5.420;2024-02-28T02:47:08;102058.75;;;1.13;100.00
75418;BME280;63997;52.112;5.420;2024-02-28T02:49:35;102060.00;;;1.10;100.00
75418;BME280;63997;52.112;5.420;2024-02-28T02:52:01;102060.66;;;1.05;100.00
75418;BME280;63997;52.112;5.420;2024-02-28T02:54:28;102050.84;;;1.01;100.00
75418;BME280;63997;52.112;5.420;2024-02-28T02:56:55;102058.16;;;0.99;100.00
75418;BME280;63997;52.112;5.420;2024-02-28T02:59:21;102063.63;;;0.97;100.00
75418;BME280;63997;52.112;5.420;2024-02-28T03:01:49;102058.59;;;0.96;100.00
75418;BME280;63997;52.112;5.420;2024-02-28T03:04:16;102058.81;;;0.94;100.00
75418;BME280;63997;52.112;5.420;2024-02-28T03:06:43;102060.63;;;0.94;100.00
75418;BME280;63997;52.112;5.420;2024-02-28T03:09:09;102056.44;;;0.93;100.00
75418;BME280;63997;52.112;5.420;2024-02-28T03:11:36;102053.56;;;0.94;100.00
75418;BME280;63997;52.112;5.420;2024-02-28T03:14:02;102047.09;;;0.97;100.00
75418;BME280;63997;52.112;5.420;2024-02-28T03:16:29;102043.22;;;0.99;100.00
75418;BME280;63997;52.112;5.420;2024-02-28T03:18:55;102043.81;;;1.01;100.00
75418;BME280;63997;52.112;5.420;2024-02-28T03:21:23;102040.16;;;1.02;100.00
75418;BME280;63997;52.112;5.420;2024-02-28T03:23:49;102044.63;;;1.02;100.00
75418;BME280;63997;52.112;5.420;2024-02-28T03:26:16;102041.75;;;1.03;100.00
75418;BME280;63997;52.112;5.420;2024-02-28T03:28:42;102042.78;;;1.02;100.00
75418;BME280;63997;52.112;5.420;2024-02-28T03:31:09;102044.16;;;1.05;100.00
75418;BME280;63997;52.112;5.420;2024-02-28T03:33:35;102040.50;;;1.06;100.00
75418;BME280;63997;52.112;5.420;2024-02-28T03:36:02;102042.69;;;1.09;100.00
75418;BME280;63997;52.112;5.420;2024-02-28T03:38:29;102044.28;;;1.10;100.00
75418;BME280;63997;52.112;5.420;2024-02-28T03:40:55;102047.13;;;1.09;100.00
75418;BME280;63997;52.112;5.420;2024-02-28T03:43:22;102048.94;;;1.08;100.00
75418;BME280;63997;52.112;5.420;2024-02-28T03:45:48;102044.75;;;1.07;100.00
75418;BME280;63997;52.112;5.420;2024-02-28T03:48:16;102043.72;;;1.08;100.00
75418;BME280;63997;52.112;5.420;2024-02-28T03:50:43;102042.69;;;1.09;100.00
75418;BME280;63997;52.112;5.420;2024-02-28T03:53:10;102049.28;;;1.12;100.00
75418;BME280;63997;52.112;5.420;2024-02-28T03:55:36;102053.84;;;1.16;100.00
75418;BME280;63997;52.112;5.420;2024-02-28T03:58:04;102048.97;;;1.20;100.00
75418;BME280;63997;52.112;5.420;2024-02-28T04:00:33;102048.97;;;1.20;100.00
75418;BME280;63997;52.112;5.420;2024-02-28T04:03:00;102046.59;;;1.18;100.00
75418;BME280;63997;52.112;5.420;2024-02-28T04:05:27;102056.22;;;1.18;100.00
75418;BME280;63997;52.112;5.420;2024-02-28T04:07:53;102058.66;;;1.19;100.00
75418;BME280;63997;52.112;5.420;2024-02-28T04:10:20;102056.03;;;1.19;100.00
75418;BME280;63997;52.112;5.420;2024-02-28T04:12:47;102049.75;;;1.20;100.00
75418;BME280;63997;52.112;5.420;2024-02-28T04:15:13;102052.94;;;1.22;100.00
75418;BME280;63997;52.112;5.420;2024-02-28T04:17:41;102049.28;;;1.23;100.00
75418;BME280;63997;52.112;5.420;2024-02-28T04:20:12;102050.69;;;1.26;100.00
75418;BME280;63997;52.112;5.420;2024-02-28T04:22:39;102055.69;;;1.27;100.00
75418;BME280;63997;52.112;5.420;2024-02-28T04:25:08;102056.84;;;1.31;100.00
75418;BME280;63997;52.112;5.420;2024-02-28T04:27:38;102058.00;;;1.36;100.00
75418;BME280;63997;52.112;5.420;2024-02-28T04:30:05;102059.91;;;1.40;100.00
75418;BME280;63997;52.112;5.420;2024-02-28T04:32:32;102061.63;;;1.46;100.00
75418;BME280;63997;52.112;5.420;2024-02-28T04:34:58;102060.38;;;1.49;100.00
75418;BME280;63997;52.112;5.420;2024-02-28T04:37:25;102050.44;;;1.51;100.00
75418;BME280;63997;52.112;5.420;2024-02-28T04:39:51;102054.22;;;1.55;100.00
75418;BME280;63997;52.112;5.420;2024-02-28T04:42:18;102048.97;;;1.55;100.00
75418;BME280;63997;52.112;5.420;2024-02-28T04:44:45;102042.50;;;1.57;100.00
75418;BME280;63997;52.112;5.420;2024-02-28T04:47:11;102048.53;;;1.58;100.00
75418;BME280;63997;52.112;5.420;2024-02-28T04:49:38;102049.88;;;1.61;100.00
75418;BME280;63997;52.112;5.420;2024-02-28T04:52:07;102060.72;;;1.64;100.00
75418;BME280;63997;52.112;5.420;2024-02-28T04:54:34;102074.16;;;1.68;100.00
75418;BME280;63997;52.112;5.420;2024-02-28T04:57:00;102075.31;;;1.72;100.00
75418;BME280;63997;52.112;5.420;2024-02-28T04:59:27;102084.31;;;1.76;100.00
75418;BME280;63997;52.112;5.420;2024-02-28T05:01:53;102075.78;;;1.80;100.00
75418;BME280;63997;52.112;5.420;2024-02-28T05:04:20;102070.03;;;1.83;100.00
75418;BME280;63997;52.112;5.420;2024-02-28T05:06:47;102079.06;;;1.88;100.00
75418;BME280;63997;52.112;5.420;2024-02-28T05:09:14;102082.81;;;1.92;100.00
75418;BME280;63997;52.112;5.420;2024-02-28T05:11:40;102081.00;;;1.92;100.00
75418;BME280;63997;52.112;5.420;2024-02-28T05:14:09;102077.69;;;1.97;100.00
75418;BME280;63997;52.112;5.420;2024-02-28T05:16:37;102074.59;;;2.00;100.00
75418;BME280;63997;52.112;5.420;2024-02-28T05:19:03;102074.94;;;2.03;100.00
75418;BME280;63997;52.112;5.420;2024-02-28T05:21:31;102078.47;;;2.09;100.00
75418;BME280;63997;52.112;5.420;2024-02-28T05:23:57;102074.31;;;2.13;100.00
75418;BME280;63997;52.112;5.420;2024-02-28T05:26:24;102080.72;;;2.17;100.00
75418;BME280;63997;52.112;5.420;2024-02-28T05:28:51;102082.66;;;2.22;100.00
75418;BME280;63997;52.112;5.420;2024-02-28T05:31:25;102070.66;;;2.26;100.00
75418;BME280;63997;52.112;5.420;2024-02-28T05:33:56;102071.78;;;2.30;100.00
75418;BME280;63997;52.112;5.420;2024-02-28T05:36:24;102065.03;;;2.34;100.00
75418;BME280;63997;52.112;5.420;2024-02-28T05:38:53;102075.88;;;2.37;100.00
75418;BME280;63997;52.112;5.420;2024-02-28T05:41:19;102077.03;;;2.42;100.00
75418;BME280;63997;52.112;5.420;2024-02-28T05:43:46;102078.13;;;2.46;100.00
75418;BME280;63997;52.112;5.420;2024-02-28T05:46:14;102078.47;;;2.49;100.00
75418;BME280;63997;52.112;5.420;2024-02-28T05:48:44;102077.97;;;2.52;100.00
75418;BME280;63997;52.112;5.420;2024-02-28T05:51:12;102082.78;;;2.55;100.00
75418;BME280;63997;52.112;5.420;2024-02-28T05:53:40;102072.03;;;2.57;100.00
75418;BME280;63997;52.112;5.420;2024-02-28T05:56:07;102075.25;;;2.59;100.00
75418;BME280;63997;52.112;5.420;2024-02-28T05:58:42;102071.34;;;2.61;100.00
75418;BME280;63997;52.112;5.420;2024-02-28T06:01:10;102067.66;;;2.62;100.00
75418;BME280;63997;52.112;5.420;2024-02-28T06:03:37;102065.63;;;2.64;100.00
75418;BME280;63997;52.112;5.420;2024-02-28T06:06:04;102074.31;;;2.65;100.00
75418;BME280;63997;52.112;5.420;2024-02-28T06:08:35;102076.44;;;2.68;100.00
75418;BME280;63997;52.112;5.420;2024-02-28T06:11:03;102076.44;;;2.68;100.00
75418;BME280;63997;52.112;5.420;2024-02-28T06:13:31;102083.88;;;2.71;100.00
75418;BME280;63997;52.112;5.420;2024-02-28T06:15:58;102077.56;;;2.72;100.00
75418;BME280;63997;52.112;5.420;2024-02-28T06:18:25;102084.41;;;2.73;100.00
75418;BME280;63997;52.112;5.420;2024-02-28T06:20:56;102080.53;;;2.76;100.00
75418;BME280;63997;52.112;5.420;2024-02-28T06:23:23;102074.25;;;2.77;100.00
75418;BME280;63997;52.112;5.420;2024-02-28T06:25:58;102087.94;;;2.79;100.00
75418;BME280;63997;52.112;5.420;2024-02-28T06:28:25;102087.69;;;2.80;100.00
75418;BME280;63997;52.112;5.420;2024-02-28T06:30:51;102095.91;;;2.84;100.00
75418;BME280;63997;52.112;5.420;2024-02-28T06:33:18;102093.03;;;2.85;100.00
75418;BME280;63997;52.112;5.420;2024-02-28T06:35:45;102090.97;;;2.87;100.00
75418;BME280;63997;52.112;5.420;2024-02-28T06:38:12;102097.59;;;2.90;100.00
75418;BME280;63997;52.112;5.420;2024-02-28T06:40:38;102093.69;;;2.92;100.00
75418;BME280;63997;52.112;5.420;2024-02-28T06:43:05;102098.47;;;2.96;100.00
75418;BME280;63997;52.112;5.420;2024-02-28T06:45:32;102102.47;;;2.98;100.00
75418;BME280;63997;52.112;5.420;2024-02-28T06:47:58;102105.88;;;2.99;100.00
75418;BME280;63997;52.112;5.420;2024-02-28T06:50:25;102112.75;;;3.00;100.00
75418;BME280;63997;52.112;5.420;2024-02-28T06:52:51;102110.09;;;3.00;100.00
75418;BME280;63997;52.112;5.420;2024-02-28T06:55:20;102122.75;;;3.03;100.00
75418;BME280;63997;52.112;5.420;2024-02-28T06:57:47;102121.25;;;3.07;100.00
75418;BME280;63997;52.112;5.420;2024-02-28T07:00:14;102137.63;;;3.09;100.00
75418;BME280;63997;52.112;5.420;2024-02-28T07:02:41;102141.34;;;3.13;100.00
75418;BME280;63997;52.112;5.420;2024-02-28T07:05:08;102145.44;;;3.21;100.00
75418;BME280;63997;52.112;5.420;2024-02-28T07:07:35;102145.97;;;3.23;100.00
75418;BME280;63997;52.112;5.420;2024-02-28T07:10:05;102139.44;;;3.25;100.00
75418;BME280;63997;52.112;5.420;2024-02-28T07:12:32;102141.59;;;3.28;100.00
75418;BME280;63997;52.112;5.420;2024-02-28T07:14:59;102140.56;;;3.29;100.00
75418;BME280;63997;52.112;5.420;2024-02-28T07:17:26;102145.03;;;3.29;100.00
75418;BME280;63997;52.112;5.420;2024-02-28T07:19:52;102154.28;;;3.31;100.00
75418;BME280;63997;52.112;5.420;2024-02-28T07:22:19;102149.59;;;3.33;100.00
75418;BME280;63997;52.112;5.420;2024-02-28T07:24:48;102150.13;;;3.35;100.00
75418;BME280;63997;52.112;5.420;2024-02-28T07:27:14;102161.22;;;3.37;100.00
75418;BME280;63997;52.112;5.420;2024-02-28T07:29:42;102162.91;;;3.43;100.00
75418;BME280;63997;52.112;5.420;2024-02-28T07:32:09;102159.00;;;3.46;100.00
75418;BME280;63997;52.112;5.420;2024-02-28T07:34:35;102165.63;;;3.49;100.00
75418;BME280;63997;52.112;5.420;2024-02-28T07:37:02;102158.28;;;3.51;100.00
75418;BME280;63997;52.112;5.420;2024-02-28T07:39:28;102166.72;;;3.53;100.00
75418;BME280;63997;52.112;5.420;2024-02-28T07:41:55;102169.13;;;3.54;100.00
75418;BME280;63997;52.112;5.420;2024-02-28T07:44:22;102169.44;;;3.58;100.00
75418;BME280;63997;52.112;5.420;2024-02-28T07:46:49;102175.25;;;3.60;100.00
75418;BME280;63997;52.112;5.420;2024-02-28T07:49:17;102180.81;;;3.63;100.00
75418;BME280;63997;52.112;5.420;2024-02-28T07:51:45;102177.16;;;3.64;100.00
75418;BME280;63997;52.112;5.420;2024-02-28T07:54:12;102174.06;;;3.67;100.00
75418;BME280;63997;52.112;5.420;2024-02-28T07:56:39;102184.13;;;3.70;100.00
75418;BME280;63997;52.112;5.420;2024-02-28T07:59:06;102180.13;;;3.68;100.00
75418;BME280;63997;52.112;5.420;2024-02-28T08:01:33;102178.53;;;3.67;100.00
75418;BME280;63997;52.112;5.420;2024-02-28T08:04:00;102181.69;;;3.69;100.00
75418;BME280;63997;52.112;5.420;2024-02-28T08:06:28;102186.97;;;3.69;100.00
75418;BME280;63997;52.112;5.420;2024-02-28T08:08:55;102193.03;;;3.69;100.00
75418;BME280;63997;52.112;5.420;2024-02-28T08:11:22;102196.69;;;3.68;100.00
75418;BME280;63997;52.112;5.420;2024-02-28T08:13:49;102203.53;;;3.69;100.00
75418;BME280;63997;52.112;5.420;2024-02-28T08:16:16;102201.72;;;3.70;100.00
75418;BME280;63997;52.112;5.420;2024-02-28T08:18:42;102198.63;;;3.73;100.00
75418;BME280;63997;52.112;5.420;2024-02-28T08:21:09;102198.69;;;3.78;100.00
75418;BME280;63997;52.112;5.420;2024-02-28T08:23:35;102203.00;;;3.84;100.00
75418;BME280;63997;52.112;5.420;2024-02-28T08:26:02;102213.28;;;3.86;100.00
75418;BME280;63997;52.112;5.420;2024-02-28T08:28:30;102221.25;;;3.91;100.00
75418;BME280;63997;52.112;5.420;2024-02-28T08:30:58;102208.88;;;3.91;100.00
75418;BME280;63997;52.112;5.420;2024-02-28T08:33:25;102212.56;;;3.90;100.00
75418;BME280;63997;52.112;5.420;2024-02-28T08:35:52;102212.31;;;3.92;100.00
75418;BME280;63997;52.112;5.420;2024-02-28T08:38:19;102213.69;;;3.94;100.00
75418;BME280;63997;52.112;5.420;2024-02-28T08:40:45;102221.41;;;4.01;100.00
75418;BME280;63997;52.112;5.420;2024-02-28T08:43:12;102224.91;;;4.07;100.00
75418;BME280;63997;52.112;5.420;2024-02-28T08:45:39;102219.97;;;4.10;100.00
75418;BME280;63997;52.112;5.420;2024-02-28T08:48:06;102219.47;;;4.13;100.00
75418;BME280;63997;52.112;5.420;2024-02-28T08:50:33;102222.91;;;4.14;100.00
75418;BME280;63997;52.112;5.420;2024-02-28T08:53:01;102215.59;;;4.16;100.00
75418;BME280;63997;52.112;5.420;2024-02-28T08:55:31;102225.16;;;4.22;100.00
75418;BME280;63997;52.112;5.420;2024-02-28T08:57:57;102221.47;;;4.23;100.00
75418;BME280;63997;52.112;5.420;2024-02-28T09:00:25;102218.03;;;4.22;100.00
75418;BME280;63997;52.112;5.420;2024-02-28T09:02:51;102222.59;;;4.27;100.00
75418;BME280;63997;52.112;5.420;2024-02-28T09:05:18;102219.72;;;4.29;100.00
75418;BME280;63997;52.112;5.420;2024-02-28T09:07:45;102216.66;;;4.37;100.00
75418;BME280;63997;52.112;5.420;2024-02-28T09:10:17;102213.28;;;4.41;100.00
75418;BME280;63997;52.112;5.420;2024-02-28T09:12:51;102219.16;;;4.48;100.00
75418;BME280;63997;52.112;5.420;2024-02-28T09:15:18;102209.75;;;4.53;100.00
75418;BME280;63997;52.112;5.420;2024-02-28T09:17:44;102207.69;;;4.55;100.00
75418;BME280;63997;52.112;5.420;2024-02-28T09:20:11;102203.28;;;4.60;100.00
75418;BME280;63997;52.112;5.420;2024-02-28T09:22:38;102205.00;;;4.71;100.00
75418;BME280;63997;52.112;5.420;2024-02-28T09:25:06;102197.03;;;4.93;100.00
75418;BME280;63997;52.112;5.420;2024-02-28T09:27:32;102205.00;;;4.98;100.00
75418;BME280;63997;52.112;5.420;2024-02-28T09:29:59;102204.41;;;4.91;100.00
75418;BME280;63997;52.112;5.420;2024-02-28T09:32:26;102211.28;;;4.92;100.00
75418;BME280;63997;52.112;5.420;2024-02-28T09:34:52;102199.78;;;5.03;100.00
75418;BME280;63997;52.112;5.420;2024-02-28T09:37:19;102204.38;;;5.13;100.00
75418;BME280;63997;52.112;5.420;2024-02-28T09:39:47;102208.13;;;5.17;100.00
75418;BME280;63997;52.112;5.420;2024-02-28T09:42:14;102206.34;;;5.23;100.00
75418;BME280;63997;52.112;5.420;2024-02-28T09:44:42;102213.00;;;5.30;100.00
75418;BME280;63997;52.112;5.420;2024-02-28T09:47:09;102211.19;;;5.36;100.00
75418;BME280;63997;52.112;5.420;2024-02-28T09:49:37;102207.56;;;5.42;100.00
75418;BME280;63997;52.112;5.420;2024-02-28T09:52:04;102201.63;;;5.57;100.00
75418;BME280;63997;52.112;5.420;2024-02-28T09:54:31;102207.56;;;5.74;100.00
75418;BME280;63997;52.112;5.420;2024-02-28T09:56:58;102207.34;;;5.81;100.00
75418;BME280;63997;52.112;5.420;2024-02-28T09:59:25;102210.09;;;5.91;100.00
75418;BME280;63997;52.112;5.420;2024-02-28T10:02:10;102216.28;;;6.07;100.00
75418;BME280;63997;52.112;5.420;2024-02-28T10:04:37;102214.50;;;6.23;100.00
75418;BME280;63997;52.112;5.420;2024-02-28T10:07:10;102220.94;;;6.37;100.00
75418;BME280;63997;52.112;5.420;2024-02-28T10:09:43;102224.66;;;6.36;100.00
75418;BME280;63997;52.112;5.420;2024-02-28T10:12:09;102227.28;;;6.36;100.00
75418;BME280;63997;52.112;5.420;2024-02-28T10:14:36;102226.22;;;6.37;100.00
75418;BME280;63997;52.112;5.420;2024-02-28T10:17:03;102216.97;;;6.40;100.00
75418;BME280;63997;52.112;5.420;2024-02-28T10:19:30;102217.59;;;6.52;100.00
75418;BME280;63997;52.112;5.420;2024-02-28T10:21:56;102218.16;;;6.59;100.00
75418;BME280;63997;52.112;5.420;2024-02-28T10:24:24;102221.06;;;6.68;100.00
75418;BME280;63997;52.112;5.420;2024-02-28T10:26:50;102231.44;;;6.74;100.00
75418;BME280;63997;52.112;5.420;2024-02-28T10:29:24;102228.25;;;6.72;100.00
75418;BME280;63997;52.112;5.420;2024-02-28T10:31:51;102219.28;;;6.78;100.00
75418;BME280;63997;52.112;5.420;2024-02-28T10:34:18;102224.63;;;6.99;100.00
75418;BME280;63997;52.112;5.420;2024-02-28T10:36:46;102222.84;;;7.14;100.00
75418;BME280;63997;52.112;5.420;2024-02-28T10:39:13;102220.44;;;7.18;100.00
75418;BME280;63997;52.112;5.420;2024-02-28T10:41:41;102229.44;;;7.17;100.00
75418;BME280;63997;52.112;5.420;2024-02-28T10:44:08;102226.53;;;7.08;100.00
75418;BME280;63997;52.112;5.420;2024-02-28T10:46:37;102226.78;;;7.12;100.00
75418;BME280;63997;52.112;5.420;2024-02-28T10:49:05;102222.31;;;7.23;100.00
75418;BME280;63997;52.112;5.420;2024-02-28T10:51:36;102222.31;;;7.33;100.00
75418;BME280;63997;52.112;5.420;2024-02-28T10:54:11;102217.03;;;7.38;100.00
75418;BME280;63997;52.112;5.420;2024-02-28T10:56:40;102213.63;;;7.53;100.00
75418;BME280;63997;52.112;5.420;2024-02-28T10:59:12;102207.78;;;7.51;100.00
75418;BME280;63997;52.112;5.420;2024-02-28T11:01:41;102196.41;;;7.71;100.00
75418;BME280;63997;52.112;5.420;2024-02-28T11:04:12;102197.44;;;7.90;100.00
75418;BME280;63997;52.112;5.420;2024-02-28T11:06:53;102195.06;;;7.99;100.00
75418;BME280;63997;52.112;5.420;2024-02-28T11:09:24;102183.91;;;8.07;100.00
75418;BME280;63997;52.112;5.420;2024-02-28T11:11:54;102187.81;;;8.25;100.00
75418;BME280;63997;52.112;5.420;2024-02-28T11:14:23;102195.25;;;8.22;100.00
75418;BME280;63997;52.112;5.420;2024-02-28T11:17:04;102194.19;;;8.23;100.00
75418;BME280;63997;52.112;5.420;2024-02-28T11:19:33;102204.78;;;8.44;100.00
75418;BME280;63997;52.112;5.420;2024-02-28T11:22:02;102194.16;;;8.44;100.00
75418;BME280;63997;52.112;5.420;2024-02-28T11:24:32;102195.25;;;8.33;100.00
75418;BME280;63997;52.112;5.420;2024-02-28T11:27:00;102194.72;;;8.31;100.00
75418;BME280;63997;52.112;5.420;2024-02-28T11:29:29;102192.06;;;8.36;100.00
75418;BME280;63997;52.112;5.420;2024-02-28T11:31:56;102186.50;;;8.37;100.00
75418;BME280;63997;52.112;5.420;2024-02-28T11:34:23;102186.22;;;8.39;100.00
75418;BME280;63997;52.112;5.420;2024-02-28T11:36:50;102185.44;;;8.28;100.00
75418;BME280;63997;52.112;5.420;2024-02-28T11:39:17;102178.28;;;8.23;100.00
75418;BME280;63997;52.112;5.420;2024-02-28T11:41:45;102176.44;;;8.19;100.00
75418;BME280;63997;52.112;5.420;2024-02-28T11:44:13;102183.09;;;8.06;100.00
75418;BME280;63997;52.112;5.420;2024-02-28T11:46:44;102187.38;;;7.97;100.00
75418;BME280;63997;52.112;5.420;2024-02-28T11:49:15;102180.75;;;8.00;100.00
75418;BME280;63997;52.112;5.420;2024-02-28T11:51:45;102178.88;;;8.10;100.00
75418;BME280;63997;52.112;5.420;2024-02-28T11:54:12;102168.78;;;8.07;100.00
75418;BME280;63997;52.112;5.420;2024-02-28T11:56:39;102172.78;;;8.05;100.00
75418;BME280;63997;52.112;5.420;2024-02-28T11:59:08;102176.22;;;8.05;100.00
75418;BME280;63997;52.112;5.420;2024-02-28T12:01:39;102174.09;;;8.12;100.00
75418;BME280;63997;52.112;5.420;2024-02-28T12:04:07;102172.22;;;8.13;100.00
75418;BME280;63997;52.112;5.420;2024-02-28T12:06:34;102166.94;;;8.13;100.00
75418;BME280;63997;52.112;5.420;2024-02-28T12:09:06;102161.31;;;8.25;100.00
75418;BME280;63997;52.112;5.420;2024-02-28T12:11:36;102167.66;;;8.34;100.00
75418;BME280;63997;52.112;5.420;2024-02-28T12:14:04;102164.19;;;8.48;100.00
75418;BME280;63997;52.112;5.420;2024-02-28T12:16:33;102158.91;;;8.48;100.00
75418;BME280;63997;52.112;5.420;2024-02-28T12:18:59;102151.72;;;8.54;100.00
75418;BME280;63997;52.112;5.420;2024-02-28T12:21:26;102159.09;;;8.62;100.00
75418;BME280;63997;52.112;5.420;2024-02-28T12:23:55;102153.47;;;8.69;100.00
75418;BME280;63997;52.112;5.420;2024-02-28T12:26:23;102152.63;;;8.79;100.00
75418;BME280;63997;52.112;5.420;2024-02-28T12:28:49;102151.81;;;8.83;100.00
75418;BME280;63997;52.112;5.420;2024-02-28T12:31:16;102148.09;;;8.84;100.00
75418;BME280;63997;52.112;5.420;2024-02-28T12:33:42;102148.59;;;8.86;100.00
75418;BME280;63997;52.112;5.420;2024-02-28T12:36:09;102149.91;;;8.94;100.00
75418;BME280;63997;52.112;5.420;2024-02-28T12:38:36;102149.09;;;8.98;100.00
75418;BME280;63997;52.112;5.420;2024-02-28T12:41:03;102148.97;;;9.09;100.00
75418;BME280;63997;52.112;5.420;2024-02-28T12:43:30;102150.59;;;9.10;100.00
75418;BME280;63997;52.112;5.420;2024-02-28T12:45:58;102148.97;;;9.09;100.00
75418;BME280;63997;52.112;5.420;2024-02-28T12:48:25;102147.44;;;9.02;100.00
75418;BME280;63997;52.112;5.420;2024-02-28T12:50:52;102140.56;;;9.01;100.00